createdAt,value
2022-12-14T00:46:52.333Z,16.57
2022-12-14T00:49:23.540Z,10.97
2022-12-14T00:51:54.580Z,16.53
2022-12-14T00:54:25.562Z,12.97
2022-12-14T00:56:56.849Z,11.90
2022-12-14T00:59:27.921Z,11.93
2022-12-14T01:02:00.493Z,12.60
2022-12-14T01:04:32.599Z,12.53
2022-12-14T01:07:04.958Z,9.20
2022-12-14T01:09:37.198Z,10.00
2022-12-14T01:12:12.198Z,11.60
2022-12-14T01:14:44.176Z,11.03
2022-12-14T01:17:17.264Z,10.17
2022-12-14T01:19:49.160Z,10.07
2022-12-14T01:22:20.588Z,10.13
2022-12-14T01:24:52.814Z,9.03
2022-12-14T01:27:25.276Z,8.27
2022-12-14T01:29:59.733Z,7.80
2022-12-14T01:32:33.414Z,9.50
2022-12-14T01:35:05.504Z,12.57
2022-12-14T01:37:36.685Z,8.40
2022-12-14T01:40:08.766Z,9.63
2022-12-14T01:42:40.961Z,9.00
2022-12-14T01:45:22.987Z,9.77
2022-12-14T01:48:00.933Z,9.17
2022-12-14T01:50:37.219Z,9.37
2022-12-14T01:53:12.477Z,9.87
2022-12-14T01:55:49.204Z,7.30
2022-12-14T01:58:23.928Z,9.10
2022-12-14T02:00:58.480Z,7.77
2022-12-14T02:03:36.602Z,7.47
2022-12-14T02:06:11.186Z,8.33
2022-12-14T02:08:45.023Z,8.07
2022-12-14T02:11:18.861Z,7.60
2022-12-14T02:13:50.566Z,9.80
2022-12-14T02:16:23.494Z,11.07
2022-12-14T02:18:57.322Z,11.23
2022-12-14T02:21:38.494Z,8.67
2022-12-14T02:24:37.980Z,11.23
2022-12-14T02:27:19.340Z,8.00
2022-12-14T02:30:20.962Z,7.83
2022-12-14T02:33:38.173Z,6.37
2022-12-14T02:36:26.304Z,5.80
2022-12-14T02:39:08.074Z,6.37
2022-12-14T02:41:45.091Z,7.43
2022-12-14T02:44:28.809Z,7.60
2022-12-14T02:47:07.065Z,7.97
2022-12-14T02:49:58.437Z,7.77
2022-12-14T02:52:43.468Z,10.77
2022-12-14T02:55:22.705Z,7.10
2022-12-14T02:57:57.625Z,7.17
2022-12-14T03:00:30.237Z,8.93
2022-12-14T03:03:01.951Z,8.80
2022-12-14T03:05:37.394Z,9.07
2022-12-14T03:08:15.364Z,9.37
2022-12-14T03:10:52.435Z,8.80
2022-12-14T03:13:28.231Z,10.57
2022-12-14T03:16:03.630Z,9.90
2022-12-14T03:18:39.636Z,9.30
2022-12-14T03:21:13.878Z,8.90
2022-12-14T03:23:50.366Z,9.50
2022-12-14T03:26:28.858Z,11.73
2022-12-14T03:29:06.873Z,6.70
2022-12-14T03:31:49.163Z,7.17
2022-12-14T03:34:24.987Z,7.10
2022-12-14T03:37:04.587Z,7.60
2022-12-14T03:39:40.991Z,9.43
2022-12-14T03:42:22.459Z,8.67
2022-12-14T03:45:03.386Z,8.83
2022-12-14T03:47:57.186Z,9.50
2022-12-14T03:50:38.059Z,8.60
2022-12-14T03:53:17.724Z,8.67
2022-12-14T03:56:02.544Z,7.20
2022-12-14T03:58:43.071Z,8.80
2022-12-14T04:01:21.873Z,7.20
2022-12-14T04:04:06.687Z,7.40
2022-12-14T04:06:48.908Z,7.70
2022-12-14T04:09:31.373Z,6.97
2022-12-14T04:12:27.570Z,8.20
2022-12-14T04:15:19.908Z,7.40
2022-12-14T04:18:08.802Z,8.43
2022-12-14T04:20:48.517Z,8.10
2022-12-14T04:23:55.132Z,6.63
2022-12-14T04:26:30.285Z,8.43
2022-12-14T04:29:23.298Z,7.77
2022-12-14T04:32:02.060Z,6.80
2022-12-14T04:34:36.823Z,7.87
2022-12-14T04:37:13.198Z,9.77
2022-12-14T04:39:51.953Z,7.60
2022-12-14T04:42:27.361Z,10.73
2022-12-14T04:45:05.862Z,8.30
2022-12-14T04:47:43.707Z,6.50
2022-12-14T04:50:23.726Z,10.30
2022-12-14T04:53:02.049Z,7.17
2022-12-14T04:55:41.195Z,8.17
2022-12-14T04:58:18.718Z,8.17
2022-12-14T05:01:12.450Z,8.17
2022-12-14T05:03:55.278Z,7.40
2022-12-14T05:06:32.486Z,8.00
2022-12-14T05:09:17.374Z,9.03
2022-12-14T05:11:55.250Z,8.63
2022-12-14T05:14:33.418Z,8.57
2022-12-14T05:17:11.099Z,6.80
2022-12-14T05:19:50.669Z,10.30
2022-12-14T05:22:23.551Z,6.70
2022-12-14T05:24:54.549Z,7.03
2022-12-14T05:27:25.887Z,8.47
2022-12-14T05:29:57.011Z,7.47
2022-12-14T05:32:32.461Z,6.97
2022-12-14T05:35:04.048Z,8.03
2022-12-14T05:37:36.872Z,6.63
2022-12-14T05:40:12.227Z,7.77
2022-12-14T05:42:46.062Z,6.07
2022-12-14T05:45:23.233Z,5.57
2022-12-14T05:47:58.577Z,6.10
2022-12-14T05:50:30.253Z,6.77
2022-12-14T05:53:02.285Z,6.63
2022-12-14T05:55:34.261Z,6.40
2022-12-14T05:58:05.532Z,6.63
2022-12-14T06:00:37.794Z,7.77
2022-12-14T06:03:13.541Z,9.40
2022-12-14T06:05:45.036Z,9.17
2022-12-14T06:08:16.301Z,8.10
2022-12-14T06:10:48.966Z,8.40
2022-12-14T06:13:20.398Z,10.87
2022-12-14T06:15:52.150Z,12.30
2022-12-14T06:18:26.807Z,9.47
2022-12-14T06:21:02.525Z,9.57
2022-12-14T06:23:34.341Z,9.50
2022-12-14T06:26:07.658Z,8.73
2022-12-14T06:28:40.165Z,11.80
2022-12-14T06:31:18.198Z,10.17
2022-12-14T06:33:56.495Z,11.80
2022-12-14T06:36:30.465Z,10.93
2022-12-14T06:39:04.203Z,8.97
2022-12-14T06:41:38.304Z,11.13
2022-12-14T06:44:11.717Z,9.37
2022-12-14T06:46:43.885Z,9.40
2022-12-14T06:49:19.505Z,8.93
2022-12-14T06:51:51.886Z,11.67
2022-12-14T06:54:24.149Z,6.70
2022-12-14T06:56:56.216Z,8.23
2022-12-14T06:59:28.235Z,7.53
2022-12-14T07:01:59.860Z,9.57
2022-12-14T07:04:37.771Z,7.57
2022-12-14T07:07:12.505Z,6.97
2022-12-14T07:09:44.609Z,7.50
2022-12-14T07:12:17.586Z,6.50
2022-12-14T07:14:49.995Z,7.23
2022-12-14T07:17:21.565Z,7.07
2022-12-14T07:19:57.869Z,7.67
2022-12-14T07:22:30.435Z,7.87
2022-12-14T07:25:02.356Z,7.87
2022-12-14T07:27:35.802Z,8.13
2022-12-14T07:30:09.145Z,7.30
2022-12-14T07:32:41.890Z,7.57
2022-12-14T07:35:16.968Z,6.97
2022-12-14T07:37:58.538Z,6.97
2022-12-14T07:40:32.560Z,7.93
2022-12-14T07:43:12.613Z,6.33
2022-12-14T07:46:00.426Z,7.27
2022-12-14T07:48:38.626Z,6.40
2022-12-14T07:51:17.840Z,9.80
2022-12-14T07:56:46.005Z,6.73
2022-12-14T07:59:21.279Z,6.20
2022-12-14T08:01:55.062Z,7.33
2022-12-14T08:04:28.335Z,7.47
2022-12-14T08:07:06.080Z,5.83
2022-12-14T08:09:38.582Z,7.60
2022-12-14T08:12:11.130Z,6.70
2022-12-14T08:14:42.422Z,7.20
2022-12-14T08:17:13.826Z,5.57
2022-12-14T08:19:45.137Z,6.33
2022-12-14T08:22:18.541Z,6.60
2022-12-14T08:24:51.208Z,6.53
2022-12-14T08:27:29.692Z,5.30
2022-12-14T08:30:01.453Z,5.67
2022-12-14T08:32:35.390Z,5.93
2022-12-14T08:35:08.785Z,6.43
2022-12-14T08:37:47.665Z,6.60
2022-12-14T08:40:19.092Z,6.13
2022-12-14T08:42:53.784Z,7.80
